createdAt,value
2019-05-03T00:06:08.903Z,98278.76
2019-05-03T00:16:12.108Z,98281.84
2019-05-03T00:26:12.841Z,98291.78
2019-05-03T00:36:13.796Z,98294.17
2019-05-03T00:46:14.944Z,98307.13
2019-05-03T00:56:15.697Z,98316.41
2019-05-03T01:06:16.674Z,98330.75
2019-05-03T01:16:17.465Z,98341.94
2019-05-03T01:26:18.456Z,98355.97
2019-05-03T01:36:19.980Z,98361.72
2019-05-03T01:46:22.782Z,98362.41
2019-05-03T01:56:23.783Z,98358.08
2019-05-03T02:06:24.430Z,98361.98
2019-05-03T02:16:25.166Z,98365.66
2019-05-03T02:26:25.913Z,98365.51
2019-05-03T02:36:26.603Z,98366.38
2019-05-03T02:46:27.529Z,98359.56
2019-05-03T02:56:28.515Z,98354.00
2019-05-03T03:06:29.799Z,98362.33
2019-05-03T03:16:32.636Z,98355.22
2019-05-03T03:26:41.473Z,98359.33
2019-05-03T03:37:00.703Z,98359.59
2019-05-03T03:46:56.574Z,98367.84
2019-05-03T03:57:03.889Z,98368.63
2019-05-03T04:07:01.402Z,98372.34
2019-05-03T04:17:05.686Z,98385.31
2019-05-03T04:27:27.475Z,98397.48
2019-05-03T04:37:27.270Z,98404.44
2019-05-03T04:47:28.599Z,98399.58
2019-05-03T04:57:39.721Z,98415.44
2019-05-03T05:07:31.857Z,98424.06
2019-05-03T05:17:35.340Z,98433.31
2019-05-03T05:27:48.361Z,98449.84
2019-05-03T05:37:38.084Z,98455.80
2019-05-03T05:47:38.825Z,98463.63
2019-05-03T05:57:39.478Z,98475.72
2019-05-03T06:07:40.173Z,98488.73
2019-05-03T06:17:41.186Z,98502.42
2019-05-03T06:27:44.878Z,98503.67
2019-05-03T06:37:45.994Z,98510.88
2019-05-03T06:47:49.960Z,98515.14
2019-05-03T06:57:49.894Z,98516.38
2019-05-03T07:07:50.608Z,98517.73
2019-05-03T07:17:51.317Z,98530.73
2019-05-03T07:27:52.230Z,98540.72
2019-05-03T07:37:52.872Z,98548.11
2019-05-03T07:47:55.820Z,98536.18
2019-05-03T07:57:56.376Z,98536.18
2019-05-03T08:07:57.336Z,98537.52
2019-05-03T08:17:58.252Z,98536.03
2019-05-03T08:27:58.930Z,98536.02
2019-05-03T08:37:59.899Z,98547.66
2019-05-03T08:48:00.620Z,98541.66
2019-05-03T08:58:01.383Z,98539.16
2019-05-03T09:08:02.287Z,98526.56
2019-05-03T09:18:04.837Z,98528.24
2019-05-03T09:28:05.801Z,98517.73
2019-05-03T09:38:06.685Z,98529.91
2019-05-03T09:48:07.646Z,98536.91
2019-05-03T09:58:08.334Z,98534.56
2019-05-03T10:08:08.940Z,98533.89
2019-05-03T10:18:11.129Z,98558.48
2019-05-03T10:28:12.161Z,98545.63
2019-05-03T10:38:15.027Z,98552.44
2019-05-03T10:48:15.801Z,98550.14
2019-05-03T10:58:16.953Z,98542.77
2019-05-03T11:08:17.843Z,98544.05
2019-05-03T11:18:18.507Z,98535.27
2019-05-03T11:28:19.574Z,98544.62
2019-05-03T11:38:20.288Z,98527.02
2019-05-03T11:48:20.887Z,98514.24
2019-05-03T11:58:21.590Z,98510.34
2019-05-03T12:08:22.209Z,98481.36
2019-05-03T12:18:24.873Z,98503.33
2019-05-03T12:28:32.413Z,98502.52
2019-05-03T12:38:34.992Z,98490.40
2019-05-03T12:48:35.837Z,98475.55
2019-05-03T12:58:36.521Z,98479.33
2019-05-03T13:08:38.417Z,98471.74
2019-05-03T13:18:39.115Z,98456.67
2019-05-03T13:28:41.751Z,98437.53
2019-05-03T13:38:45.270Z,98446.53
2019-05-03T13:48:49.090Z,98434.86
2019-05-03T13:58:55.113Z,98429.59
2019-05-03T14:08:55.804Z,98403.34
2019-05-03T14:18:56.515Z,98407.56
2019-05-03T14:28:57.172Z,98402.48
2019-05-03T14:38:57.841Z,98394.31
2019-05-03T14:48:58.508Z,98386.27
2019-05-03T14:58:59.443Z,98391.39
2019-05-03T15:09:00.256Z,98374.80
2019-05-03T15:19:01.831Z,98363.25
2019-05-03T15:29:04.731Z,98368.69
2019-05-03T15:39:05.410Z,98370.56
2019-05-03T15:49:06.139Z,98377.58
2019-05-03T15:59:06.781Z,98376.72
2019-05-03T16:09:07.563Z,98382.33
2019-05-03T16:19:08.328Z,98377.58
2019-05-03T16:29:08.983Z,98374.91
2019-05-03T16:39:09.781Z,98371.98
2019-05-03T16:49:10.451Z,98369.26
2019-05-03T16:59:11.150Z,98367.11
2019-05-03T17:09:11.940Z,98367.41
2019-05-03T17:19:12.602Z,98356.76
2019-05-03T17:29:13.376Z,98375.63
2019-05-03T17:39:15.072Z,98378.61
2019-05-03T17:49:15.923Z,98379.04
2019-05-03T17:59:16.617Z,98378.02
2019-05-03T18:09:17.271Z,98381.48
2019-05-03T18:19:18.087Z,98387.06
2019-05-03T18:29:18.836Z,98381.85
2019-05-03T18:39:19.551Z,98387.28
2019-05-03T18:49:21.230Z,98391.83
2019-05-03T18:59:22.983Z,98388.02
2019-05-03T19:09:25.071Z,98394.04
2019-05-03T19:19:26.157Z,98397.39
2019-05-03T19:29:26.936Z,98408.45
2019-05-03T19:39:36.950Z,98395.66
2019-05-03T19:49:46.114Z,98404.91
2019-05-03T19:59:56.983Z,98394.46
2019-05-03T20:10:07.150Z,98397.22
2019-05-03T20:20:15.461Z,98398.41
2019-05-03T20:30:16.521Z,98387.41
2019-05-03T20:40:17.470Z,98381.44
2019-05-03T20:50:18.312Z,98386.38
2019-05-03T21:00:22.349Z,98387.28
2019-05-03T21:10:35.029Z,98385.60
2019-05-03T21:31:24.748Z,98369.48
2019-05-03T21:41:25.772Z,98369.23
2019-05-03T21:51:28.765Z,98353.41
2019-05-03T22:01:38.761Z,98355.25
2019-05-03T22:11:39.610Z,98355.17
2019-05-03T22:21:49.390Z,98352.41
2019-05-03T22:31:50.146Z,98325.17
2019-05-03T22:41:59.731Z,98310.52
2019-05-03T22:52:00.419Z,98287.84
2019-05-03T23:02:16.717Z,98265.63
2019-05-03T23:12:15.817Z,98249.99
2019-05-03T23:32:32.227Z,98243.18
2019-05-03T23:42:42.586Z,98229.21
2019-05-03T23:52:54.490Z,98216.02
